Time;durP1;ratioP1;P1;durP2;ratioP2;P2;SDS_P1;SDS_P2;PMS_P1;PMS_P2;Temp;Humidity;BMP_temperature;BMP_pressure;BME280_temperature;BME280_humidity;BME280_pressure;Samples;Min_cycle;Max_cycle;Signal;HPM_P1;HPM_P2
2021/12/16 00:02:05;;;;;;;38.60;23.05;;;;;;;;;;4982737;28;20053;-70
2021/12/16 00:34:57;;;;;;;37.30;22.48;;;;;;;;;;4940168;28;20046;-75
2021/12/16 00:37:26;;;;;;;35.00;23.10;;;;;;;;;;4956796;28;20149;-71
2021/12/16 00:39:52;;;;;;;34.58;23.02;;;;;;;;;;4921156;28;20082;-70
2021/12/16 00:42:35;;;;;;;34.03;22.95;;;;;;;;;;4951997;28;20922;-72
2021/12/16 00:45:20;;;;;;;36.38;22.40;;;;;;;;;;4957815;28;20054;-67
2021/12/16 00:50:23;;;;;;;34.50;21.92;;;;;;;;;;5023473;28;20065;-70
2021/12/16 00:55:48;;;;;;;30.60;21.65;;;;;;;;;;5003812;28;20532;-67
2021/12/16 00:58:17;;;;;;;33.47;21.70;;;;;;;;;;4989190;28;20135;-71
2021/12/16 01:00:53;;;;;;;34.92;21.85;;;;;;;;;;4987399;28;20458;-69
2021/12/16 01:03:29;;;;;;;32.28;21.40;;;;;;;;;;5019138;28;20959;-71
2021/12/16 01:08:52;;;;;;;38.85;23.30;;;;;;;;;;5023202;28;20084;-70
2021/12/16 01:57:17;;;;;;;37.20;20.85;;;;;;;;;;4971226;28;20068;-66
2021/12/16 01:59:55;;;;;;;32.72;20.88;;;;;;;;;;4953691;28;20053;-69
2021/12/16 02:10:30;;;;;;;33.30;19.83;;;;;;;;;;5020873;28;20053;-69
2021/12/16 02:37:47;;;;;;;34.13;19.87;;;;;;;;;;5004489;28;20155;-69
2021/12/16 02:40:17;;;;;;;28.30;18.42;;;;;;;;;;5017774;28;20298;-69
2021/12/16 02:48:36;;;;;;;28.15;18.40;;;;;;;;;;5019859;28;20528;-69
2021/12/16 02:51:21;;;;;;;27.90;18.92;;;;;;;;;;5017074;28;20103;-66
2021/12/16 02:53:53;;;;;;;27.50;17.83;;;;;;;;;;4994416;28;20053;-70
2021/12/16 02:56:21;;;;;;;32.78;20.10;;;;;;;;;;5019667;28;20324;-70
2021/12/16 02:58:52;;;;;;;31.17;19.88;;;;;;;;;;5020712;28;20056;-68
2021/12/16 03:01:26;;;;;;;32.83;19.92;;;;;;;;;;4985110;28;20053;-68
2021/12/16 03:03:53;;;;;;;27.88;19.27;;;;;;;;;;5013416;28;20049;-71
2021/12/16 03:06:20;;;;;;;32.00;19.10;;;;;;;;;;5021872;28;20053;-67
2021/12/16 03:08:49;;;;;;;32.10;19.40;;;;;;;;;;5021611;28;20493;-69
2021/12/16 03:13:56;;;;;;;31.10;19.73;;;;;;;;;;5013960;28;20694;-70
2021/12/16 03:21:49;;;;;;;30.00;18.05;;;;;;;;;;5017271;28;20659;-67
2021/12/16 03:35:13;;;;;;;25.92;17.48;;;;;;;;;;5001662;28;20052;-70
2021/12/16 03:37:41;;;;;;;27.42;16.45;;;;;;;;;;4985686;28;20041;-66
2021/12/16 03:40:12;;;;;;;30.45;18.20;;;;;;;;;;4999826;28;20366;-66
2021/12/16 03:42:54;;;;;;;27.73;17.83;;;;;;;;;;4987975;28;20754;-68
2021/12/16 03:48:30;;;;;;;26.98;18.20;;;;;;;;;;5001665;28;20148;-67
2021/12/16 03:50:56;;;;;;;26.70;18.05;;;;;;;;;;4999101;28;20064;-68
2021/12/16 03:53:22;;;;;;;28.67;17.98;;;;;;;;;;4997704;28;20052;-67
2021/12/16 03:55:49;;;;;;;30.65;18.92;;;;;;;;;;5000532;28;20068;-69
2021/12/16 03:58:16;;;;;;;27.55;17.45;;;;;;;;;;5021407;28;20081;-70
2021/12/16 04:00:50;;;;;;;25.88;18.00;;;;;;;;;;5020184;28;20064;-70
2021/12/16 04:03:16;;;;;;;34.72;18.48;;;;;;;;;;5018657;28;20057;-69
2021/12/16 04:05:43;;;;;;;29.48;17.45;;;;;;;;;;5003198;28;20426;-68
2021/12/16 04:08:10;;;;;;;28.23;18.67;;;;;;;;;;5001736;28;20398;-68
2021/12/16 04:11:04;;;;;;;29.00;18.25;;;;;;;;;;5017034;28;20053;-67
2021/12/16 04:13:36;;;;;;;31.52;17.50;;;;;;;;;;4996654;28;21549;-69
2021/12/16 04:16:03;;;;;;;27.67;17.42;;;;;;;;;;5018607;28;20049;-67
2021/12/16 04:18:30;;;;;;;27.25;16.75;;;;;;;;;;5019554;28;20151;-70
2021/12/16 04:20:56;;;;;;;26.38;17.42;;;;;;;;;;5017813;28;20139;-68
2021/12/16 04:23:22;;;;;;;27.70;17.17;;;;;;;;;;5015424;28;20140;-69
2021/12/16 04:25:50;;;;;;;26.42;17.38;;;;;;;;;;5002905;28;20439;-68
2021/12/16 04:28:22;;;;;;;28.50;17.20;;;;;;;;;;5002382;28;20056;-69
2021/12/16 04:30:48;;;;;;;25.10;16.92;;;;;;;;;;5018022;28;20061;-69
2021/12/16 04:33:14;;;;;;;33.72;17.40;;;;;;;;;;4997191;28;20355;-69
2021/12/16 04:35:41;;;;;;;28.80;17.25;;;;;;;;;;5018526;28;20139;-67
2021/12/16 04:38:09;;;;;;;30.27;16.25;;;;;;;;;;5018636;28;20061;-66
2021/12/16 04:40:37;;;;;;;27.45;16.75;;;;;;;;;;5015826;28;20056;-68
2021/12/16 04:43:05;;;;;;;29.30;17.48;;;;;;;;;;5014400;28;20417;-71
2021/12/16 04:45:33;;;;;;;27.55;16.70;;;;;;;;;;5000139;28;20057;-68
2021/12/16 04:48:00;;;;;;;31.42;17.88;;;;;;;;;;5019906;28;20179;-67
2021/12/16 04:50:27;;;;;;;27.92;16.63;;;;;;;;;;5018201;28;20045;-68
2021/12/16 04:52:53;;;;;;;29.45;18.50;;;;;;;;;;4996519;28;20060;-69
2021/12/16 04:55:20;;;;;;;26.88;17.35;;;;;;;;;;5016800;28;20060;-70
2021/12/16 04:57:48;;;;;;;26.60;15.95;;;;;;;;;;5001448;28;20441;-68
2021/12/16 05:00:24;;;;;;;32.53;16.77;;;;;;;;;;5017409;28;20507;-69
2021/12/16 05:02:52;;;;;;;28.65;16.17;;;;;;;;;;5014660;28;20049;-71
2021/12/16 05:05:20;;;;;;;27.70;16.00;;;;;;;;;;4981548;28;20061;-69
2021/12/16 05:07:47;;;;;;;25.90;16.08;;;;;;;;;;4983778;28;20999;-69
2021/12/16 05:10:16;;;;;;;27.25;15.57;;;;;;;;;;5015768;28;20486;-70
2021/12/16 05:12:50;;;;;;;30.25;16.90;;;;;;;;;;4993092;28;20052;-71
2021/12/16 05:15:20;;;;;;;31.52;16.63;;;;;;;;;;4983667;28;20053;-69
2021/12/16 05:17:50;;;;;;;31.90;17.33;;;;;;;;;;4996842;28;20056;-69
2021/12/16 05:20:25;;;;;;;33.55;17.95;;;;;;;;;;4996647;28;20523;-69
2021/12/16 05:28:25;;;;;;;29.00;17.63;;;;;;;;;;4997911;28;20578;-69
2021/12/16 05:30:52;;;;;;;28.13;16.13;;;;;;;;;;5013736;28;20790;-69
2021/12/16 05:33:21;;;;;;;29.38;15.65;;;;;;;;;;4996826;28;20092;-70
2021/12/16 05:35:48;;;;;;;28.02;15.45;;;;;;;;;;5001485;28;20056;-70
2021/12/16 05:38:14;;;;;;;23.92;15.10;;;;;;;;;;5003655;28;20111;-71
2021/12/16 05:40:41;;;;;;;26.17;15.80;;;;;;;;;;5001093;28;20060;-70
2021/12/16 05:43:11;;;;;;;26.35;14.88;;;;;;;;;;4999609;28;20057;-69
2021/12/16 05:45:38;;;;;;;26.55;15.25;;;;;;;;;;5020345;28;20053;-70
2021/12/16 05:48:07;;;;;;;25.25;14.93;;;;;;;;;;5003439;28;20060;-70
2021/12/16 05:50:39;;;;;;;26.35;14.75;;;;;;;;;;5017856;28;20308;-68
2021/12/16 05:53:05;;;;;;;23.48;14.95;;;;;;;;;;5017986;28;20140;-67
2021/12/16 05:55:32;;;;;;;25.92;15.23;;;;;;;;;;5016797;28;20448;-68
2021/12/16 05:58:02;;;;;;;24.52;14.93;;;;;;;;;;5020661;28;20182;-67
2021/12/16 06:00:35;;;;;;;24.33;15.35;;;;;;;;;;4999630;28;20045;-69
2021/12/16 06:03:03;;;;;;;23.73;15.65;;;;;;;;;;5017720;28;20185;-70
2021/12/16 06:05:30;;;;;;;31.85;17.55;;;;;;;;;;5006014;28;20061;-70
2021/12/16 06:07:56;;;;;;;26.60;16.33;;;;;;;;;;4997479;28;20099;-72
2021/12/16 06:12:51;;;;;;;33.35;18.38;;;;;;;;;;5019382;28;20080;-73
2021/12/16 06:15:34;;;;;;;29.65;16.83;;;;;;;;;;5021533;28;20604;-69
2021/12/16 06:26:35;;;;;;;27.85;17.67;;;;;;;;;;5019492;28;20052;-70
2021/12/16 06:29:03;;;;;;;36.15;17.92;;;;;;;;;;5006231;28;20146;-67
2021/12/16 06:31:30;;;;;;;32.20;16.50;;;;;;;;;;5018510;28;20502;-67
2021/12/16 06:33:57;;;;;;;27.65;16.40;;;;;;;;;;5018019;28;20132;-70
2021/12/16 06:36:23;;;;;;;25.33;16.67;;;;;;;;;;5019577;28;20055;-69
2021/12/16 06:38:49;;;;;;;29.30;16.13;;;;;;;;;;4999978;28;20060;-69
2021/12/16 06:41:17;;;;;;;25.80;15.82;;;;;;;;;;5000816;28;20061;-70
2021/12/16 06:43:44;;;;;;;28.67;17.05;;;;;;;;;;5017025;28;20394;-68
2021/12/16 06:46:14;;;;;;;28.55;15.93;;;;;;;;;;4986311;28;20140;-67
2021/12/16 06:48:43;;;;;;;27.77;15.68;;;;;;;;;;5002717;28;20087;-69
2021/12/16 06:51:21;;;;;;;25.95;15.50;;;;;;;;;;5019116;28;20489;-69
2021/12/16 06:54:14;;;;;;;29.17;16.27;;;;;;;;;;5017280;28;20082;-69
2021/12/16 06:56:46;;;;;;;25.30;16.05;;;;;;;;;;5018544;28;20171;-72
2021/12/16 06:59:23;;;;;;;25.30;15.50;;;;;;;;;;5003030;28;20061;-69
2021/12/16 07:02:04;;;;;;;31.10;16.20;;;;;;;;;;4985186;28;20080;-73
2021/12/16 07:04:31;;;;;;;27.65;15.35;;;;;;;;;;5017140;28;20075;-70
2021/12/16 07:06:58;;;;;;;24.90;15.40;;;;;;;;;;5020714;28;20049;-71
2021/12/16 07:09:24;;;;;;;24.13;15.13;;;;;;;;;;5020519;28;21009;-70
2021/12/16 07:11:53;;;;;;;26.65;15.95;;;;;;;;;;5016210;28;20049;-72
2021/12/16 07:14:24;;;;;;;29.02;16.80;;;;;;;;;;5015566;28;20053;-72
2021/12/16 07:16:56;;;;;;;37.03;15.90;;;;;;;;;;5020080;28;20049;-69
2021/12/16 07:19:23;;;;;;;25.75;15.60;;;;;;;;;;4999691;28;20520;-73
2021/12/16 07:21:50;;;;;;;25.77;15.18;;;;;;;;;;5018158;28;20647;-71
2021/12/16 07:24:19;;;;;;;29.60;15.52;;;;;;;;;;5018448;28;20403;-71
2021/12/16 07:26:46;;;;;;;27.48;16.33;;;;;;;;;;5017355;28;20056;-71
2021/12/16 07:29:12;;;;;;;27.45;15.57;;;;;;;;;;5018788;28;20118;-70
2021/12/16 07:31:39;;;;;;;25.30;15.25;;;;;;;;;;5018122;28;20849;-69
2021/12/16 07:34:08;;;;;;;25.65;15.80;;;;;;;;;;4999531;28;20138;-69
2021/12/16 07:36:37;;;;;;;25.90;15.27;;;;;;;;;;5018260;28;20173;-69
2021/12/16 07:39:06;;;;;;;31.20;14.90;;;;;;;;;;5001562;28;20094;-68
2021/12/16 07:41:34;;;;;;;24.98;14.35;;;;;;;;;;5015748;28;20052;-71
2021/12/16 07:44:11;;;;;;;27.40;15.00;;;;;;;;;;5018662;28;20532;-70
2021/12/16 07:46:51;;;;;;;40.17;19.42;;;;;;;;;;5010711;28;20053;-71
2021/12/16 07:49:22;;;;;;;28.48;14.70;;;;;;;;;;5033539;28;20405;-76
2021/12/16 07:51:49;;;;;;;29.30;15.55;;;;;;;;;;5014713;28;20768;-72
2021/12/16 07:54:17;;;;;;;24.98;15.63;;;;;;;;;;5022350;28;20771;-73
2021/12/16 07:56:46;;;;;;;24.52;14.35;;;;;;;;;;5027485;28;20100;-73
2021/12/16 07:59:12;;;;;;;23.08;14.90;;;;;;;;;;5028648;28;20630;-73
2021/12/16 08:01:42;;;;;;;24.52;14.90;;;;;;;;;;5024767;28;20052;-73
2021/12/16 08:04:17;;;;;;;24.52;14.57;;;;;;;;;;5004430;28;20060;-73
2021/12/16 08:06:44;;;;;;;21.75;13.98;;;;;;;;;;5010227;28;20402;-74
2021/12/16 08:09:10;;;;;;;23.50;13.63;;;;;;;;;;5008803;28;20516;-73
2021/12/16 08:11:40;;;;;;;26.15;13.55;;;;;;;;;;5026018;28;20867;-74
2021/12/16 08:14:07;;;;;;;27.73;15.77;;;;;;;;;;5004999;28;20092;-76
2021/12/16 08:16:35;;;;;;;23.85;14.82;;;;;;;;;;5010223;28;21086;-75
2021/12/16 08:19:02;;;;;;;28.58;14.52;;;;;;;;;;5009411;28;20433;-73
2021/12/16 08:21:29;;;;;;;24.92;14.10;;;;;;;;;;5026885;28;20091;-72
2021/12/16 08:23:58;;;;;;;29.27;15.98;;;;;;;;;;5025239;28;20052;-73
2021/12/16 08:26:25;;;;;;;31.40;16.15;;;;;;;;;;5028910;28;20084;-74
2021/12/16 08:28:52;;;;;;;34.67;16.75;;;;;;;;;;5030820;28;20498;-73
2021/12/16 08:31:19;;;;;;;29.52;15.07;;;;;;;;;;5011331;28;20044;-75
2021/12/16 08:33:47;;;;;;;30.77;16.50;;;;;;;;;;5010038;28;20060;-72
2021/12/16 08:36:14;;;;;;;34.35;17.35;;;;;;;;;;5012645;28;20211;-73
2021/12/16 08:38:40;;;;;;;27.77;14.73;;;;;;;;;;5013051;28;20049;-73
2021/12/16 08:41:13;;;;;;;33.00;15.15;;;;;;;;;;5010294;28;20138;-73
2021/12/16 08:43:41;;;;;;;25.08;15.25;;;;;;;;;;5009555;28;20069;-72
2021/12/16 08:46:12;;;;;;;26.13;14.35;;;;;;;;;;4995583;28;20620;-73
2021/12/16 08:48:42;;;;;;;26.05;14.23;;;;;;;;;;5010448;28;20053;-74
2021/12/16 08:51:10;;;;;;;30.77;14.88;;;;;;;;;;5005911;28;20661;-74
2021/12/16 08:53:36;;;;;;;26.90;14.48;;;;;;;;;;5022653;28;20053;-76
2021/12/16 08:56:06;;;;;;;28.23;15.23;;;;;;;;;;5025150;28;20049;-76
2021/12/16 08:58:33;;;;;;;24.80;14.68;;;;;;;;;;5036444;28;20052;-78
2021/12/16 09:01:06;;;;;;;24.92;14.75;;;;;;;;;;5016851;28;20426;-76
2021/12/16 09:03:33;;;;;;;30.77;14.57;;;;;;;;;;5031992;28;20056;-77
2021/12/16 09:05:59;;;;;;;31.15;14.45;;;;;;;;;;5025965;28;20060;-79
2021/12/16 09:08:25;;;;;;;26.70;14.23;;;;;;;;;;5024014;28;20052;-79
2021/12/16 09:10:52;;;;;;;30.75;14.77;;;;;;;;;;5016914;28;20060;-78
2021/12/16 09:13:19;;;;;;;32.78;15.60;;;;;;;;;;5000176;28;20087;-75
2021/12/16 09:15:51;;;;;;;28.58;14.45;;;;;;;;;;5027707;28;20498;-73
2021/12/16 09:18:22;;;;;;;22.17;13.88;;;;;;;;;;5009192;28;20076;-74
2021/12/16 09:20:50;;;;;;;29.63;14.68;;;;;;;;;;5030907;28;20454;-74
2021/12/16 09:23:16;;;;;;;27.33;15.07;;;;;;;;;;5008801;28;20056;-76
2021/12/16 09:25:46;;;;;;;29.13;15.05;;;;;;;;;;5029959;28;20057;-80
2021/12/16 09:28:13;;;;;;;26.48;14.88;;;;;;;;;;5021856;28;20163;-80
2021/12/16 09:30:40;;;;;;;28.50;14.93;;;;;;;;;;5014195;28;20046;-79
2021/12/16 09:33:13;;;;;;;24.80;14.73;;;;;;;;;;5011826;28;20045;-76
2021/12/16 09:35:39;;;;;;;28.58;14.82;;;;;;;;;;4981931;28;20061;-76
2021/12/16 09:38:07;;;;;;;24.60;14.70;;;;;;;;;;4996271;28;20057;-79
2021/12/16 09:40:38;;;;;;;22.73;13.27;;;;;;;;;;5025681;28;20044;-77
2021/12/16 09:43:04;;;;;;;24.95;14.45;;;;;;;;;;5021792;28;20114;-77
2021/12/16 09:45:31;;;;;;;33.95;14.75;;;;;;;;;;5020065;28;20508;-75
2021/12/16 09:47:57;;;;;;;28.50;14.48;;;;;;;;;;5000988;28;20052;-75
2021/12/16 09:50:28;;;;;;;23.67;13.60;;;;;;;;;;5018242;28;20067;-75
2021/12/16 09:52:56;;;;;;;22.63;13.13;;;;;;;;;;5014751;28;20793;-75
2021/12/16 09:55:22;;;;;;;26.55;13.10;;;;;;;;;;4999915;28;20827;-76
2021/12/16 09:57:48;;;;;;;27.42;13.25;;;;;;;;;;5016227;28;20068;-77
2021/12/16 10:00:18;;;;;;;25.70;13.80;;;;;;;;;;5015782;28;20061;-77
2021/12/16 10:02:46;;;;;;;28.77;12.90;;;;;;;;;;5021737;28;20055;-75
2021/12/16 10:05:13;;;;;;;25.45;13.00;;;;;;;;;;5012141;28;20064;-76
2021/12/16 10:07:39;;;;;;;29.02;14.02;;;;;;;;;;5027059;28;20065;-74
2021/12/16 10:10:10;;;;;;;37.78;13.18;;;;;;;;;;5010290;28;20053;-75
2021/12/16 10:12:40;;;;;;;22.35;13.20;;;;;;;;;;5007105;28;20061;-77
2021/12/16 10:17:56;;;;;;;22.25;12.43;;;;;;;;;;5031182;28;20478;-73
2021/12/16 10:20:27;;;;;;;20.77;12.45;;;;;;;;;;5035284;28;20041;-76
2021/12/16 10:23:04;;;;;;;25.77;12.73;;;;;;;;;;5032245;28;20444;-73
2021/12/16 10:25:45;;;;;;;23.25;12.95;;;;;;;;;;5033297;28;20063;-71
2021/12/16 10:28:16;;;;;;;28.95;12.38;;;;;;;;;;5036523;28;20102;-70
2021/12/16 10:30:54;;;;;;;23.33;12.75;;;;;;;;;;5016138;28;20750;-76
2021/12/16 10:33:44;;;;;;;22.20;10.73;;;;;;;;;;5010186;28;20060;-75
2021/12/16 10:36:23;;;;;;;22.45;10.32;;;;;;;;;;5012703;28;20490;-75
2021/12/16 10:39:18;;;;;;;18.33;9.55;;;;;;;;;;5030918;28;20294;-77
2021/12/16 10:41:50;;;;;;;22.65;10.07;;;;;;;;;;4996289;28;20055;-73
2021/12/16 10:44:27;;;;;;;20.80;9.73;;;;;;;;;;5028576;28;20504;-73
2021/12/16 10:47:01;;;;;;;17.83;9.88;;;;;;;;;;5025885;28;20124;-76
2021/12/16 10:49:37;;;;;;;16.70;8.95;;;;;;;;;;5031974;28;20502;-73
2021/12/16 10:52:16;;;;;;;22.15;9.60;;;;;;;;;;5012325;28;20068;-73
2021/12/16 10:54:47;;;;;;;16.88;8.43;;;;;;;;;;5013509;28;20987;-75
2021/12/16 10:57:20;;;;;;;20.85;11.43;;;;;;;;;;4991824;28;20414;-73
2021/12/16 10:59:52;;;;;;;15.43;9.27;;;;;;;;;;5032349;28;20105;-71
2021/12/16 11:02:21;;;;;;;14.73;8.60;;;;;;;;;;5033765;28;20061;-74
2021/12/16 11:04:55;;;;;;;15.65;8.80;;;;;;;;;;5017894;28;20045;-76
2021/12/16 11:07:43;;;;;;;9.68;6.78;;;;;;;;;;5036737;28;20273;-76
2021/12/16 11:10:29;;;;;;;11.85;8.50;;;;;;;;;;5037912;28;20053;-71
2021/12/16 11:13:02;;;;;;;12.43;8.75;;;;;;;;;;5032706;28;20194;-78
2021/12/16 11:15:31;;;;;;;13.63;7.70;;;;;;;;;;5018363;28;20052;-74
2021/12/16 11:18:20;;;;;;;12.27;8.23;;;;;;;;;;5020342;28;20067;-74
2021/12/16 11:20:46;;;;;;;16.20;8.48;;;;;;;;;;5018258;28;20052;-80
2021/12/16 11:23:12;;;;;;;17.30;8.55;;;;;;;;;;5032441;28;20446;-75
2021/12/16 11:25:42;;;;;;;13.35;8.52;;;;;;;;;;5015976;28;20075;-74
2021/12/16 11:28:17;;;;;;;13.30;8.10;;;;;;;;;;5014621;28;20579;-72
2021/12/16 11:30:52;;;;;;;11.55;7.97;;;;;;;;;;5031024;28;20959;-72
2021/12/16 11:33:21;;;;;;;;;;;;;;;;;;5009550;28;20052;-72
2021/12/16 11:35:56;;;;;;;10.32;6.15;;;;;;;;;;5030407;28;19920;-75
2021/12/16 11:38:36;;;;;;;9.15;4.32;;;;;;;;;;5017884;28;20068;-75
2021/12/16 11:41:02;;;;;;;10.48;5.00;;;;;;;;;;5031466;28;20175;-76
2021/12/16 11:43:31;;;;;;;10.50;4.28;;;;;;;;;;5009243;28;20055;-72
2021/12/16 11:45:58;;;;;;;6.30;4.13;;;;;;;;;;5028265;28;20045;-74
2021/12/16 11:48:35;;;;;;;8.43;4.50;;;;;;;;;;5029486;28;20406;-73
2021/12/16 11:51:21;;;;;;;11.60;4.20;;;;;;;;;;5028887;28;20148;-73
2021/12/16 11:53:52;;;;;;;11.65;4.45;;;;;;;;;;5027304;28;20057;-72
2021/12/16 11:56:21;;;;;;;9.98;3.85;;;;;;;;;;5009680;28;20134;-70
2021/12/16 11:58:48;;;;;;;9.75;3.75;;;;;;;;;;5026985;28;20048;-73
2021/12/16 12:01:22;;;;;;;6.50;3.92;;;;;;;;;;5012130;28;20168;-75
2021/12/16 12:03:49;;;;;;;6.57;4.20;;;;;;;;;;5009663;28;20056;-75
2021/12/16 12:06:26;;;;;;;8.95;3.80;;;;;;;;;;5013959;28;20064;-76
2021/12/16 12:08:57;;;;;;;7.18;4.05;;;;;;;;;;5035836;28;20055;-80
2021/12/16 12:11:30;;;;;;;8.93;4.28;;;;;;;;;;5014713;28;20057;-75
2021/12/16 12:14:01;;;;;;;8.65;4.32;;;;;;;;;;5004944;28;20056;-69
2021/12/16 12:16:31;;;;;;;9.77;4.32;;;;;;;;;;4992157;28;20057;-70
2021/12/16 12:19:13;;;;;;;9.93;4.20;;;;;;;;;;5024389;28;20458;-71
2021/12/16 12:21:56;;;;;;;8.00;4.38;;;;;;;;;;5027562;28;20043;-73
2021/12/16 12:24:26;;;;;;;9.73;4.38;;;;;;;;;;5024404;28;20513;-76
2021/12/16 12:26:54;;;;;;;8.35;4.93;;;;;;;;;;5026155;28;20434;-73
2021/12/16 12:29:34;;;;;;;11.85;4.75;;;;;;;;;;5007967;28;20521;-76
2021/12/16 12:32:14;;;;;;;8.60;4.75;;;;;;;;;;5007368;28;21444;-77
2021/12/16 12:34:44;;;;;;;8.98;4.85;;;;;;;;;;5010872;28;20516;-71
2021/12/16 12:37:14;;;;;;;9.98;4.57;;;;;;;;;;5019146;28;20049;-73
2021/12/16 12:39:50;;;;;;;11.27;5.10;;;;;;;;;;5030870;28;20045;-72
2021/12/16 12:42:17;;;;;;;8.38;4.57;;;;;;;;;;5014240;28;20094;-77
2021/12/16 12:44:44;;;;;;;12.63;4.93;;;;;;;;;;5015137;28;20297;-73
2021/12/16 12:47:15;;;;;;;8.73;4.30;;;;;;;;;;5035768;28;20053;-72
2021/12/16 12:49:42;;;;;;;13.32;5.63;;;;;;;;;;5036523;28;20142;-75
2021/12/16 12:52:22;;;;;;;11.60;5.50;;;;;;;;;;5009895;28;20060;-71
2021/12/16 12:55:10;;;;;;;9.90;5.43;;;;;;;;;;5014130;28;20056;-73
2021/12/16 12:57:38;;;;;;;12.25;5.90;;;;;;;;;;5029503;28;20045;-76
2021/12/16 13:00:09;;;;;;;8.77;5.55;;;;;;;;;;5034293;28;20060;-74
2021/12/16 13:02:37;;;;;;;11.15;5.97;;;;;;;;;;5033351;28;21517;-73
2021/12/16 13:05:16;;;;;;;10.55;5.90;;;;;;;;;;5025242;28;20048;-72
2021/12/16 13:07:46;;;;;;;11.30;6.18;;;;;;;;;;5045625;28;20060;-77
2021/12/16 13:10:23;;;;;;;11.48;5.68;;;;;;;;;;5025352;28;20057;-78
2021/12/16 13:13:13;;;;;;;10.35;5.47;;;;;;;;;;5022070;28;20063;-73
2021/12/16 13:26:38;;;;;;;11.07;5.40;;;;;;;;;;5034883;28;20132;-77
2021/12/16 13:29:21;;;;;;;11.40;4.85;;;;;;;;;;5026461;28;20052;-69
2021/12/16 13:32:07;;;;;;;8.02;5.07;;;;;;;;;;5023530;28;20064;-79
2021/12/16 13:34:33;;;;;;;11.85;5.43;;;;;;;;;;5016667;28;20663;-78
2021/12/16 13:37:06;;;;;;;6.68;4.80;;;;;;;;;;5021552;28;20489;-71
2021/12/16 13:39:42;;;;;;;7.93;4.80;;;;;;;;;;5037427;28;20060;-72
2021/12/16 13:42:13;;;;;;;10.30;4.93;;;;;;;;;;5031700;28;20052;-75
2021/12/16 13:44:57;;;;;;;8.05;4.53;;;;;;;;;;5022325;28;20329;-73
2021/12/16 14:02:06;;;;;;;8.15;4.38;;;;;;;;;;5039685;28;20041;-78
2021/12/16 14:10:18;;;;;;;6.80;3.53;;;;;;;;;;5033106;28;20057;-71
2021/12/16 14:16:25;;;;;;;11.00;4.38;;;;;;;;;;5021437;28;20054;-75
2021/12/16 14:41:35;;;;;;;8.80;3.72;;;;;;;;;;5023067;28;20103;-72
2021/12/16 14:47:53;;;;;;;6.32;3.45;;;;;;;;;;5041303;28;20061;-76
2021/12/16 14:49:49;;;;;;;9.75;3.78;;;;;;;;;;5019135;28;20056;-72
2021/12/16 14:52:20;;;;;;;5.80;3.43;;;;;;;;;;5021290;28;20071;-74
2021/12/16 14:54:54;;;;;;;7.78;3.90;;;;;;;;;;5040267;28;20124;-74
2021/12/16 14:57:23;;;;;;;9.90;3.37;;;;;;;;;;5005718;28;20045;-73
2021/12/16 14:59:51;;;;;;;5.70;3.33;;;;;;;;;;5005493;28;20061;-76
2021/12/16 15:02:20;;;;;;;7.63;3.63;;;;;;;;;;5035050;28;20061;-77
2021/12/16 15:04:47;;;;;;;4.68;2.67;;;;;;;;;;5005243;28;20897;-72
2021/12/16 15:07:14;;;;;;;6.70;2.95;;;;;;;;;;5041204;28;20425;-76
2021/12/16 15:09:41;;;;;;;8.50;3.58;;;;;;;;;;5043301;28;20959;-72
2021/12/16 15:37:51;;;;;;;9.48;3.28;;;;;;;;;;4960422;28;20059;-77
2021/12/16 15:40:42;;;;;;;5.93;2.90;;;;;;;;;;4959281;28;20078;-75
2021/12/16 15:43:13;;;;;;;5.90;3.58;;;;;;;;;;4953612;28;20086;-74
2021/12/16 15:45:46;;;;;;;7.80;3.20;;;;;;;;;;4968585;28;20483;-74
2021/12/16 15:48:21;;;;;;;6.65;3.00;;;;;;;;;;4953346;28;20094;-77
2021/12/16 15:50:59;;;;;;;6.68;2.75;;;;;;;;;;4954551;28;20394;-75
2021/12/16 15:53:30;;;;;;;5.15;3.10;;;;;;;;;;4937272;28;20066;-75
2021/12/16 15:56:05;;;;;;;10.00;3.60;;;;;;;;;;4987493;28;20110;-72
2021/12/16 15:58:43;;;;;;;8.57;3.92;;;;;;;;;;5037208;28;20226;-73
2021/12/16 16:01:27;;;;;;;10.13;4.28;;;;;;;;;;5015818;28;20060;-71
2021/12/16 16:03:54;;;;;;;18.02;3.35;;;;;;;;;;5032763;28;20140;-71
2021/12/16 16:06:20;;;;;;;6.63;3.20;;;;;;;;;;5036316;28;20052;-74
2021/12/16 16:08:51;;;;;;;6.38;3.22;;;;;;;;;;5001899;28;20049;-77
2021/12/16 16:11:27;;;;;;;6.28;3.28;;;;;;;;;;5036702;28;20435;-75
2021/12/16 16:13:58;;;;;;;5.90;3.20;;;;;;;;;;5032427;28;20037;-76
2021/12/16 16:16:33;;;;;;;5.50;3.40;;;;;;;;;;5033755;28;20416;-76
2021/12/16 16:19:00;;;;;;;7.97;3.38;;;;;;;;;;5014694;28;20494;-73
2021/12/16 16:21:29;;;;;;;5.78;3.35;;;;;;;;;;5033693;28;20123;-72
2021/12/16 16:23:58;;;;;;;5.72;3.70;;;;;;;;;;5016716;28;20506;-76
2021/12/16 16:26:27;;;;;;;8.60;3.58;;;;;;;;;;5033040;28;20065;-74
2021/12/16 16:28:59;;;;;;;6.00;3.55;;;;;;;;;;5019833;28;20041;-74
2021/12/16 16:31:28;;;;;;;9.95;3.72;;;;;;;;;;5030532;28;20098;-71
2021/12/16 16:33:55;;;;;;;11.57;3.70;;;;;;;;;;5029601;28;20486;-74
2021/12/16 16:36:25;;;;;;;5.40;3.30;;;;;;;;;;5016245;28;20130;-74
2021/12/16 16:39:03;;;;;;;6.50;3.05;;;;;;;;;;5019808;28;20441;-76
2021/12/16 16:41:31;;;;;;;7.88;3.30;;;;;;;;;;5039639;28;20119;-74
2021/12/16 16:44:00;;;;;;;5.38;3.33;;;;;;;;;;5028168;28;21925;-69
2021/12/16 16:46:33;;;;;;;8.55;3.47;;;;;;;;;;5028116;28;20053;-75
2021/12/16 16:49:05;;;;;;;5.85;3.20;;;;;;;;;;5019586;28;20076;-69
2021/12/16 16:51:38;;;;;;;10.65;3.50;;;;;;;;;;5015149;28;20194;-73
2021/12/16 16:54:18;;;;;;;7.65;3.65;;;;;;;;;;5029788;28;20615;-73
2021/12/16 16:57:06;;;;;;;9.70;3.70;;;;;;;;;;4997221;28;20090;-73
2021/12/16 16:59:36;;;;;;;7.28;3.80;;;;;;;;;;5001105;28;20079;-76
2021/12/16 17:02:33;;;;;;;11.32;4.30;;;;;;;;;;5032028;28;20071;-74
2021/12/16 17:05:03;;;;;;;8.07;3.50;;;;;;;;;;5008101;28;20130;-70
2021/12/16 17:07:46;;;;;;;10.30;4.20;;;;;;;;;;5015037;28;20049;-76
2021/12/16 17:10:41;;;;;;;9.38;4.78;;;;;;;;;;5035543;28;20053;-75
2021/12/16 17:13:24;;;;;;;11.18;4.15;;;;;;;;;;5031235;28;20598;-76
2021/12/16 17:18:33;;;;;;;9.05;4.40;;;;;;;;;;5036194;28;20100;-74
2021/12/16 17:21:11;;;;;;;6.35;4.32;;;;;;;;;;5007495;28;20055;-72
2021/12/16 17:23:37;;;;;;;9.52;4.30;;;;;;;;;;5024114;28;20049;-72
2021/12/16 17:26:23;;;;;;;8.73;4.60;;;;;;;;;;5035424;28;20053;-73
2021/12/16 17:28:54;;;;;;;7.28;4.80;;;;;;;;;;5055778;28;20215;-74
2021/12/16 17:31:37;;;;;;;9.07;4.57;;;;;;;;;;5045604;28;20079;-75
2021/12/16 17:34:22;;;;;;;9.48;4.28;;;;;;;;;;5025205;28;20080;-75
2021/12/16 17:37:00;;;;;;;;;;;;;;;;;;5050457;28;20056;-72
2021/12/16 17:39:40;;;;;;;7.93;4.80;;;;;;;;;;5034128;28;20350;-74
2021/12/16 17:42:11;;;;;;;8.00;4.22;;;;;;;;;;5032097;28;20131;-74
2021/12/16 17:44:41;;;;;;;5.72;4.03;;;;;;;;;;5039317;28;20053;-72
2021/12/16 17:47:13;;;;;;;8.93;4.40;;;;;;;;;;5013578;28;20161;-71
2021/12/16 17:49:39;;;;;;;7.93;4.68;;;;;;;;;;5021976;28;20053;-76
2021/12/16 17:52:14;;;;;;;9.90;4.50;;;;;;;;;;4999441;28;20494;-72
2021/12/16 17:54:47;;;;;;;10.60;4.70;;;;;;;;;;5017920;28;20060;-72
2021/12/16 17:57:22;;;;;;;8.02;3.88;;;;;;;;;;5012452;28;20064;-69
2021/12/16 17:59:48;;;;;;;7.70;4.05;;;;;;;;;;5028107;28;20053;-73
2021/12/16 18:02:19;;;;;;;6.47;4.63;;;;;;;;;;5027524;28;20045;-76
2021/12/16 18:04:49;;;;;;;8.35;4.05;;;;;;;;;;5023164;28;21880;-77
2021/12/16 18:07:15;;;;;;;8.65;4.28;;;;;;;;;;5022404;28;20117;-72
2021/12/16 18:09:44;;;;;;;6.22;3.70;;;;;;;;;;5027398;28;20051;-74
2021/12/16 18:12:25;;;;;;;9.80;4.38;;;;;;;;;;5008491;28;20166;-76
2021/12/16 18:15:03;;;;;;;7.38;4.38;;;;;;;;;;4992812;28;20061;-70
2021/12/16 18:17:52;;;;;;;7.80;4.20;;;;;;;;;;5025330;28;20056;-71
2021/12/16 18:20:33;;;;;;;6.63;4.53;;;;;;;;;;5015597;28;20379;-71
2021/12/16 18:23:03;;;;;;;8.15;3.97;;;;;;;;;;4997518;28;20060;-75
2021/12/16 18:25:32;;;;;;;9.73;4.50;;;;;;;;;;5001140;28;20091;-71
2021/12/16 18:28:06;;;;;;;9.80;4.90;;;;;;;;;;5022955;28;20063;-76
2021/12/16 18:30:36;;;;;;;11.90;5.22;;;;;;;;;;5020523;28;20102;-72
2021/12/16 18:33:08;;;;;;;7.05;4.65;;;;;;;;;;5001144;28;20053;-73
2021/12/16 18:35:43;;;;;;;7.93;5.32;;;;;;;;;;5025650;28;20078;-73
2021/12/16 18:38:25;;;;;;;6.32;5.00;;;;;;;;;;5005373;28;20926;-69
2021/12/16 18:40:53;;;;;;;11.82;5.63;;;;;;;;;;5020552;28;20048;-73
2021/12/16 18:43:22;;;;;;;8.48;5.32;;;;;;;;;;5019576;28;20063;-72
2021/12/16 18:45:51;;;;;;;10.07;5.65;;;;;;;;;;5021876;28;20095;-72
2021/12/16 18:56:31;;;;;;;12.30;5.88;;;;;;;;;;5019585;28;20061;-70
2021/12/16 18:58:57;;;;;;;10.68;5.95;;;;;;;;;;5021183;28;20417;-67
2021/12/16 19:01:37;;;;;;;12.13;5.60;;;;;;;;;;5002022;28;20055;-72
2021/12/16 19:04:05;;;;;;;11.70;6.40;;;;;;;;;;5017598;28;20164;-73
2021/12/16 19:06:36;;;;;;;13.45;6.03;;;;;;;;;;4999904;28;20563;-69
2021/12/16 19:09:07;;;;;;;10.95;6.10;;;;;;;;;;5001409;28;20384;-74
2021/12/16 19:11:43;;;;;;;9.20;6.15;;;;;;;;;;5020966;28;20064;-70
2021/12/16 19:14:11;;;;;;;10.90;6.00;;;;;;;;;;5001265;28;20183;-70
2021/12/16 19:16:38;;;;;;;10.60;6.88;;;;;;;;;;5019475;28;20056;-71